createdAt,value
2018-10-05T00:04:33.905Z,8.26
2018-10-05T00:09:52.610Z,8.29
2018-10-05T00:15:11.155Z,8.20
2018-10-05T00:20:29.732Z,8.19
2018-10-05T00:25:48.231Z,8.26
2018-10-05T00:31:07.269Z,8.17
2018-10-05T00:36:25.900Z,8.29
2018-10-05T00:41:44.388Z,8.62
2018-10-05T00:47:02.892Z,9.08
2018-10-05T00:52:22.096Z,9.29
2018-10-05T00:57:40.601Z,9.21
2018-10-05T01:02:59.165Z,8.95
2018-10-05T01:08:17.685Z,8.69
2018-10-05T01:13:36.184Z,8.66
2018-10-05T01:18:54.784Z,8.66
2018-10-05T01:24:13.651Z,8.56
2018-10-05T01:29:32.161Z,8.46
2018-10-05T01:34:50.859Z,8.46
2018-10-05T01:40:10.535Z,8.44
2018-10-05T01:45:29.135Z,8.41
2018-10-05T01:50:47.718Z,8.39
2018-10-05T01:56:06.411Z,8.36
2018-10-05T02:01:25.824Z,8.34
2018-10-05T02:06:45.008Z,8.24
2018-10-05T02:12:03.566Z,8.26
2018-10-05T02:17:22.568Z,8.22
2018-10-05T02:22:41.204Z,8.25
2018-10-05T02:28:00.433Z,8.25
2018-10-05T02:33:19.041Z,8.42
2018-10-05T02:38:37.561Z,8.48
2018-10-05T02:43:56.344Z,8.70
2018-10-05T02:49:14.866Z,8.77
2018-10-05T02:54:34.003Z,8.73
2018-10-05T02:59:52.527Z,8.63
2018-10-05T03:05:11.160Z,8.65
2018-10-05T03:10:29.668Z,8.61
2018-10-05T03:15:48.401Z,8.68
2018-10-05T03:21:07.243Z,8.45
2018-10-05T03:26:25.860Z,8.41
2018-10-05T03:31:45.475Z,8.37
2018-10-05T03:37:04.626Z,8.31
2018-10-05T03:42:23.215Z,8.31
2018-10-05T03:47:41.870Z,8.32
2018-10-05T03:53:00.424Z,8.26
2018-10-05T03:58:19.358Z,8.24
2018-10-05T04:03:37.877Z,8.17
2018-10-05T04:08:56.470Z,8.08
2018-10-05T04:14:15.157Z,8.10
2018-10-05T04:19:33.766Z,8.08
2018-10-05T04:24:52.280Z,8.06
2018-10-05T04:30:10.964Z,8.03
2018-10-05T04:35:29.831Z,8.09
2018-10-05T04:40:48.358Z,8.01
2018-10-05T04:46:07.025Z,7.95
2018-10-05T04:51:25.753Z,7.90
2018-10-05T04:56:44.266Z,7.83
2018-10-05T05:02:02.820Z,7.82
2018-10-05T05:07:21.891Z,8.23
2018-10-05T05:12:40.467Z,8.66
2018-10-05T05:17:59.037Z,9.13
2018-10-05T05:23:17.589Z,9.61
2018-10-05T05:28:36.168Z,9.84
2018-10-05T05:33:55.723Z,9.97
2018-10-05T05:39:14.329Z,10.23
2018-10-05T05:44:32.948Z,10.44
2018-10-05T05:49:51.844Z,10.64
2018-10-05T05:55:11.378Z,10.62
2018-10-05T06:00:30.120Z,10.70
2018-10-05T06:05:48.788Z,10.69
2018-10-05T06:11:08.068Z,10.88
2018-10-05T06:16:26.808Z,11.10
2018-10-05T06:21:45.376Z,11.37
2018-10-05T06:27:03.882Z,11.58
2018-10-05T06:32:23.208Z,11.58
2018-10-05T06:37:41.799Z,11.75
2018-10-05T06:43:01.935Z,11.81
2018-10-05T06:48:21.561Z,11.92
2018-10-05T06:53:40.193Z,12.11
2018-10-05T06:58:59.427Z,12.20
2018-10-05T07:04:17.965Z,12.47
2018-10-05T07:09:36.553Z,12.62
2018-10-05T07:14:55.107Z,12.77
2018-10-05T07:20:13.741Z,12.89
2018-10-05T07:25:39.091Z,13.16
2018-10-05T07:30:57.834Z,13.30
2018-10-05T07:36:16.635Z,13.48
2018-10-05T07:41:35.181Z,13.60
2018-10-05T07:46:53.870Z,13.77
2018-10-05T07:52:12.606Z,13.86
2018-10-05T07:57:31.533Z,14.11
2018-10-05T08:02:50.847Z,14.32
2018-10-05T08:08:09.619Z,14.38
2018-10-05T08:13:28.280Z,14.47
2018-10-05T08:18:46.871Z,14.62
2018-10-05T08:24:06.322Z,14.87
2018-10-05T08:29:25.057Z,14.92
2018-10-05T08:34:43.607Z,15.19
2018-10-05T08:40:02.240Z,15.28
2018-10-05T08:45:20.855Z,15.53
2018-10-05T08:50:39.446Z,15.75
2018-10-05T08:55:57.996Z,15.80
2018-10-05T09:01:17.214Z,15.92
2018-10-05T09:06:36.741Z,16.07
2018-10-05T09:11:55.373Z,16.30
2018-10-05T09:17:13.982Z,16.38
2018-10-05T09:22:32.591Z,16.43
2018-10-05T09:27:51.353Z,16.43
2018-10-05T09:33:16.380Z,16.51
2018-10-05T09:38:35.722Z,16.69
2018-10-05T09:43:54.302Z,16.79
2018-10-05T09:49:14.008Z,16.90
2018-10-05T09:54:32.594Z,16.93
2018-10-05T09:59:51.322Z,17.05
2018-10-05T10:05:09.823Z,17.27
2018-10-05T10:10:28.530Z,17.41
2018-10-05T10:15:47.059Z,17.39
2018-10-05T10:21:06.368Z,17.66
2018-10-05T10:26:24.882Z,17.69
2018-10-05T10:31:43.441Z,17.90
2018-10-05T10:37:02.603Z,17.93
2018-10-05T10:42:21.223Z,18.13
2018-10-05T10:47:39.822Z,18.20
2018-10-05T10:52:58.394Z,18.33
2018-10-05T10:58:17.015Z,18.41
2018-10-05T11:03:35.666Z,18.53
2018-10-05T11:08:54.263Z,18.55
2018-10-05T11:14:12.831Z,18.64
2018-10-05T11:19:31.510Z,18.68
2018-10-05T11:24:50.178Z,18.84
2018-10-05T11:30:09.467Z,18.82
2018-10-05T11:35:28.171Z,19.00
2018-10-05T11:40:46.853Z,19.11
2018-10-05T11:46:05.562Z,19.15
2018-10-05T11:51:24.178Z,19.17
2018-10-05T11:56:42.871Z,19.25
2018-10-05T12:02:01.423Z,19.41
2018-10-05T12:07:20.003Z,19.46
2018-10-05T12:12:38.544Z,19.58
2018-10-05T12:17:57.750Z,19.47
2018-10-05T12:23:16.343Z,19.61
2018-10-05T12:28:34.849Z,19.75
2018-10-05T12:33:53.487Z,19.70
2018-10-05T12:39:12.088Z,19.65
2018-10-05T12:44:30.707Z,19.66
2018-10-05T12:49:49.287Z,19.66
2018-10-05T12:55:07.910Z,19.58
2018-10-05T13:00:26.506Z,19.67
2018-10-05T13:05:45.184Z,19.74
2018-10-05T13:11:03.809Z,19.84
2018-10-05T13:16:22.400Z,19.93
2018-10-05T13:21:41.013Z,19.94
2018-10-05T13:26:59.610Z,20.10
2018-10-05T13:32:18.215Z,20.09
2018-10-05T13:37:36.764Z,20.00
2018-10-05T13:42:55.293Z,19.97
2018-10-05T13:48:13.839Z,19.94
2018-10-05T13:53:32.603Z,19.72
2018-10-05T13:58:51.211Z,19.86
2018-10-05T14:04:09.864Z,19.88
2018-10-05T14:09:28.513Z,19.80
2018-10-05T14:14:47.155Z,19.93
2018-10-05T14:20:06.127Z,19.89
2018-10-05T14:25:24.890Z,19.89
2018-10-05T14:30:43.534Z,19.85
2018-10-05T14:36:02.456Z,19.79
2018-10-05T14:41:21.733Z,19.64
2018-10-05T14:46:40.467Z,19.63
2018-10-05T14:51:58.983Z,19.62
2018-10-05T14:57:17.552Z,19.45
2018-10-05T15:02:36.044Z,19.36
2018-10-05T15:07:54.601Z,19.20
2018-10-05T15:13:13.161Z,19.15
2018-10-05T15:18:31.708Z,18.97
2018-10-05T15:23:50.340Z,18.88
2018-10-05T15:29:08.884Z,18.85
2018-10-05T15:34:27.417Z,18.74
2018-10-05T15:39:46.183Z,18.62
2018-10-05T15:45:04.807Z,18.58
2018-10-05T15:50:23.443Z,18.44
2018-10-05T15:55:42.059Z,18.43
2018-10-05T16:01:00.612Z,18.35
2018-10-05T16:06:19.180Z,18.19
2018-10-05T16:11:38.043Z,18.27
2018-10-05T16:16:57.165Z,18.27
2018-10-05T16:22:15.697Z,18.18
2018-10-05T16:27:34.269Z,17.91
2018-10-05T16:32:52.850Z,17.73
2018-10-05T16:38:12.143Z,17.37
2018-10-05T16:43:38.743Z,17.19
2018-10-05T16:48:57.390Z,16.83
2018-10-05T16:54:16.585Z,16.53
2018-10-05T16:59:35.175Z,16.13
2018-10-05T17:04:53.770Z,15.85
2018-10-05T17:10:13.476Z,15.65
2018-10-05T17:15:31.995Z,15.54
2018-10-05T17:20:50.514Z,15.35
2018-10-05T17:26:09.149Z,15.14
2018-10-05T17:31:27.817Z,14.98
2018-10-05T17:36:47.270Z,14.89
2018-10-05T17:42:05.852Z,14.80
2018-10-05T17:47:24.612Z,14.73
2018-10-05T17:52:43.261Z,14.64
2018-10-05T17:58:02.125Z,14.58
2018-10-05T18:03:20.667Z,14.61
2018-10-05T18:08:39.240Z,14.59
2018-10-05T18:13:59.839Z,14.54
2018-10-05T18:19:19.077Z,14.57
2018-10-05T18:24:37.622Z,14.50
2018-10-05T18:29:56.194Z,14.51
2018-10-05T18:35:15.203Z,14.62
2018-10-05T18:40:34.237Z,14.62
2018-10-05T18:45:53.485Z,14.55
2018-10-05T18:51:12.095Z,14.59
2018-10-05T18:56:41.907Z,14.58
2018-10-05T19:02:00.717Z,14.65
2018-10-05T19:07:20.067Z,14.70
2018-10-05T19:12:38.629Z,14.81
2018-10-05T19:17:57.235Z,14.76
2018-10-05T19:23:16.124Z,14.91
2018-10-05T19:28:36.227Z,14.82
2018-10-05T19:33:55.124Z,14.70
2018-10-05T19:39:13.774Z,14.68
2018-10-05T19:44:32.494Z,14.76
2018-10-05T19:49:51.376Z,14.73
2018-10-05T19:55:10.116Z,14.90
2018-10-05T20:00:30.812Z,14.94
2018-10-05T20:05:49.951Z,14.92
2018-10-05T20:11:10.764Z,14.82
2018-10-05T20:16:29.953Z,14.65
2018-10-05T20:21:48.717Z,14.41
2018-10-05T20:27:07.586Z,14.26
2018-10-05T20:32:26.877Z,14.08
2018-10-05T20:37:46.240Z,14.08
2018-10-05T20:43:04.812Z,13.98
2018-10-05T20:48:24.684Z,13.89
2018-10-05T20:53:43.912Z,13.86
2018-10-05T20:59:03.234Z,13.68
2018-10-05T21:04:22.630Z,13.67
2018-10-05T21:09:41.205Z,13.54
2018-10-05T21:15:00.014Z,13.40
2018-10-05T21:20:18.997Z,13.33
2018-10-05T21:25:37.775Z,13.22
2018-10-05T21:30:56.432Z,13.18
2018-10-05T21:36:15.209Z,13.19
2018-10-05T21:41:34.146Z,13.16
2018-10-05T21:46:52.780Z,13.11
2018-10-05T21:52:11.368Z,13.11
2018-10-05T21:57:30.054Z,13.16
2018-10-05T22:02:48.822Z,13.22
2018-10-05T22:08:07.379Z,13.11
2018-10-05T22:13:32.639Z,13.04
2018-10-05T22:18:51.265Z,12.90
2018-10-05T22:24:09.851Z,12.81
2018-10-05T22:29:28.541Z,12.89
2018-10-05T22:34:47.054Z,12.93
2018-10-05T22:40:06.053Z,12.84
2018-10-05T22:45:24.927Z,12.79
2018-10-05T22:50:43.498Z,12.77
2018-10-05T22:56:02.133Z,12.88
2018-10-05T23:01:20.702Z,12.77
2018-10-05T23:06:39.271Z,12.69
2018-10-05T23:11:57.764Z,12.63
2018-10-05T23:17:18.641Z,12.62
2018-10-05T23:22:37.462Z,12.48
2018-10-05T23:27:56.931Z,12.48
2018-10-05T23:33:15.861Z,12.32
2018-10-05T23:38:34.459Z,12.29
2018-10-05T23:43:53.254Z,12.22
2018-10-05T23:49:12.238Z,12.16
2018-10-05T23:54:31.166Z,12.01
2018-10-05T23:59:50.118Z,11.98
